createdAt,value
2019-03-02T00:02:20.619Z,3.92
2019-03-02T00:04:49.479Z,4.53
2019-03-02T00:07:19.015Z,4.10
2019-03-02T00:09:48.982Z,3.60
2019-03-02T00:12:18.485Z,3.90
2019-03-02T00:14:50.771Z,4.40
2019-03-02T00:17:20.272Z,3.70
2019-03-02T00:19:49.806Z,3.90
2019-03-02T00:22:19.319Z,3.60
2019-03-02T00:24:48.819Z,4.37
2019-03-02T00:27:21.290Z,4.40
2019-03-02T00:29:49.543Z,4.15
2019-03-02T00:32:19.075Z,4.00
2019-03-02T00:34:48.583Z,5.00
2019-03-02T00:37:18.120Z,4.45
2019-03-02T00:39:50.702Z,4.70
2019-03-02T00:42:19.816Z,5.30
2019-03-02T00:44:49.319Z,5.20
2019-03-02T00:47:18.839Z,5.00
2019-03-02T00:49:48.353Z,4.80
2019-03-02T00:52:20.483Z,5.00
2019-03-02T00:54:57.752Z,5.30
2019-03-02T00:57:20.301Z,5.00
2019-03-02T00:59:49.819Z,5.50
2019-03-02T01:02:19.328Z,5.42
2019-03-02T01:04:48.844Z,5.08
2019-03-02T01:07:20.724Z,5.15
2019-03-02T01:09:49.567Z,5.55
2019-03-02T01:12:19.075Z,6.30
2019-03-02T01:14:48.585Z,5.67
2019-03-02T01:17:18.109Z,5.30
2019-03-02T01:19:49.013Z,5.30
2019-03-02T01:22:18.866Z,5.75
2019-03-02T01:24:48.393Z,5.50
2019-03-02T01:27:17.901Z,5.70
2019-03-02T01:29:47.417Z,5.67
2019-03-02T01:32:17.488Z,5.80
2019-03-02T01:34:47.032Z,5.72
2019-03-02T01:37:16.591Z,5.60
2019-03-02T01:39:46.104Z,6.42
2019-03-02T01:42:15.610Z,6.05
2019-03-02T01:44:45.209Z,6.28
2019-03-02T01:47:15.738Z,6.22
2019-03-02T01:49:46.903Z,5.70
2019-03-02T01:52:16.404Z,5.95
2019-03-02T01:54:45.915Z,5.87
2019-03-02T01:57:17.264Z,6.60
2019-03-02T01:59:46.637Z,6.40
2019-03-02T02:02:16.149Z,6.50
2019-03-02T02:04:45.663Z,6.80
2019-03-02T02:07:18.151Z,6.78
2019-03-02T02:09:46.388Z,6.70
2019-03-02T02:12:16.071Z,5.80
2019-03-02T02:14:45.664Z,5.65
2019-03-02T02:17:17.561Z,5.80
2019-03-02T02:19:46.393Z,5.80
2019-03-02T02:22:15.895Z,5.10
2019-03-02T02:24:45.409Z,4.93
2019-03-02T02:27:14.916Z,4.40
2019-03-02T02:29:44.469Z,4.40
2019-03-02T02:32:13.938Z,4.90
2019-03-02T02:34:43.467Z,3.67
2019-03-02T02:37:12.971Z,3.70
2019-03-02T02:39:42.486Z,3.02
2019-03-02T02:42:12.003Z,3.62
2019-03-02T02:44:41.521Z,3.10
2019-03-02T02:47:12.531Z,3.40
2019-03-02T02:49:44.427Z,2.90
2019-03-02T02:52:13.451Z,2.90
2019-03-02T02:54:42.983Z,3.00
2019-03-02T02:57:12.485Z,3.40
2019-03-02T02:59:41.995Z,2.85
2019-03-02T03:02:12.259Z,3.08
2019-03-02T03:04:41.975Z,3.30
2019-03-02T03:07:12.436Z,3.10
2019-03-02T03:10:02.235Z,3.60
2019-03-02T03:12:33.168Z,3.10
2019-03-02T03:15:02.687Z,3.00
2019-03-02T03:17:32.653Z,2.90
2019-03-02T03:20:05.459Z,3.30
2019-03-02T03:22:34.394Z,2.52
2019-03-02T03:25:04.245Z,2.58
2019-03-02T03:27:33.899Z,2.83
2019-03-02T03:30:03.574Z,3.20
2019-03-02T03:32:34.623Z,3.08
2019-03-02T03:35:15.696Z,2.35
2019-03-02T03:37:35.380Z,2.60
2019-03-02T03:40:05.761Z,2.62
2019-03-02T03:42:35.266Z,2.90
2019-03-02T03:45:06.895Z,2.80
2019-03-02T03:47:38.824Z,3.40
2019-03-02T03:50:09.133Z,2.90
2019-03-02T03:52:44.035Z,3.10
2019-03-02T03:55:11.288Z,3.40
2019-03-02T03:57:40.789Z,3.60
2019-03-02T04:00:12.517Z,3.40
2019-03-02T04:02:42.097Z,3.00
2019-03-02T04:05:11.820Z,3.33
2019-03-02T04:07:48.586Z,3.00
2019-03-02T04:10:13.342Z,3.33
2019-03-02T04:12:42.846Z,4.10
2019-03-02T04:15:12.476Z,3.50
2019-03-02T04:17:42.009Z,3.60
2019-03-02T04:20:22.519Z,3.60
2019-03-02T04:22:52.616Z,3.30
2019-03-02T04:25:22.225Z,3.30
2019-03-02T04:27:54.578Z,3.52
2019-03-02T04:30:30.754Z,4.10
2019-03-02T04:32:54.191Z,3.98
2019-03-02T04:35:23.728Z,3.45
2019-03-02T04:37:56.672Z,3.37
2019-03-02T04:40:27.987Z,3.50
2019-03-02T04:42:56.665Z,3.50
2019-03-02T04:45:26.175Z,3.72
2019-03-02T04:47:55.687Z,4.05
2019-03-02T04:50:27.097Z,4.03
2019-03-02T04:52:56.413Z,4.10
2019-03-02T04:55:25.941Z,3.75
2019-03-02T04:57:55.475Z,4.10
2019-03-02T05:00:25.048Z,4.75
2019-03-02T05:02:55.199Z,4.92
2019-03-02T05:05:25.576Z,4.80
2019-03-02T05:07:56.064Z,5.37
2019-03-02T05:10:28.628Z,5.50
2019-03-02T05:12:56.822Z,5.05
2019-03-02T05:15:26.395Z,5.40
2019-03-02T05:17:55.909Z,5.10
2019-03-02T05:20:25.402Z,5.10
2019-03-02T05:22:55.986Z,5.28
2019-03-02T05:25:25.572Z,5.50
2019-03-02T05:27:55.093Z,5.40
2019-03-02T05:30:26.849Z,5.55
2019-03-02T05:32:55.892Z,5.15
2019-03-02T05:35:25.396Z,4.80
2019-03-02T05:37:54.901Z,4.45
2019-03-02T05:40:27.706Z,4.35
2019-03-02T05:42:55.623Z,4.33
2019-03-02T05:45:25.130Z,4.08
2019-03-02T05:47:54.651Z,4.20
2019-03-02T05:50:26.587Z,4.35
2019-03-02T05:52:55.414Z,4.75
2019-03-02T05:55:24.877Z,5.00
2019-03-02T05:57:54.382Z,4.90
2019-03-02T06:00:24.373Z,5.20
2019-03-02T06:02:53.882Z,5.15
2019-03-02T06:05:23.387Z,5.40
2019-03-02T06:07:53.878Z,5.70
2019-03-02T06:10:25.280Z,5.37
2019-03-02T06:12:55.859Z,5.90
2019-03-02T06:15:25.362Z,6.00
2019-03-02T06:17:54.871Z,5.67
2019-03-02T06:20:24.387Z,6.10
2019-03-02T06:22:55.547Z,5.75
2019-03-02T06:25:25.098Z,5.50
2019-03-02T06:27:54.620Z,5.53
2019-03-02T06:30:24.223Z,5.70
2019-03-02T06:32:53.743Z,6.40
2019-03-02T06:35:23.238Z,6.10
2019-03-02T06:37:56.217Z,6.10
2019-03-02T06:40:23.946Z,6.33
2019-03-02T06:42:54.436Z,6.22
2019-03-02T06:45:23.938Z,6.72
2019-03-02T06:47:54.906Z,6.90
2019-03-02T06:50:24.443Z,7.03
2019-03-02T06:52:53.958Z,6.70
2019-03-02T06:55:24.527Z,6.47
2019-03-02T06:57:54.394Z,6.70
2019-03-02T07:00:23.992Z,7.70
2019-03-02T07:02:53.500Z,8.43
2019-03-02T07:05:23.013Z,7.70
2019-03-02T07:07:53.608Z,8.07
2019-03-02T07:10:23.813Z,7.75
2019-03-02T07:12:55.037Z,7.50
2019-03-02T07:15:24.561Z,7.47
2019-03-02T07:18:16.072Z,7.40
2019-03-02T07:20:45.629Z,7.60
2019-03-02T07:23:15.145Z,8.50
2019-03-02T07:25:44.643Z,8.70
2019-03-02T07:28:14.152Z,8.70
2019-03-02T07:30:43.732Z,9.33
2019-03-02T07:33:13.265Z,10.78
2019-03-02T07:35:42.772Z,10.60
2019-03-02T07:38:12.284Z,11.38
2019-03-02T07:40:45.586Z,12.35
2019-03-02T07:43:13.033Z,12.60
2019-03-02T07:45:42.618Z,14.28
2019-03-02T07:48:12.249Z,16.12
2019-03-02T07:50:41.753Z,17.52
2019-03-02T07:53:11.259Z,17.60
2019-03-02T07:55:40.770Z,19.12
2019-03-02T07:58:10.279Z,19.30
2019-03-02T08:00:40.894Z,19.43
2019-03-02T08:03:11.197Z,20.67
2019-03-02T08:05:40.722Z,21.37
2019-03-02T08:08:10.786Z,21.95
2019-03-02T08:10:41.490Z,22.70
2019-03-02T08:13:11.025Z,25.45
2019-03-02T08:15:40.540Z,24.77
2019-03-02T08:18:10.355Z,25.97
2019-03-02T08:20:39.876Z,25.97
2019-03-02T08:23:09.385Z,26.60
2019-03-02T08:25:39.874Z,27.43
2019-03-02T08:28:09.949Z,26.30
2019-03-02T08:30:40.837Z,27.13
2019-03-02T08:33:10.464Z,27.00
2019-03-02T08:35:40.055Z,27.52
2019-03-02T08:38:09.574Z,27.47
2019-03-02T08:40:40.026Z,28.90
2019-03-02T08:43:12.980Z,28.07
2019-03-02T08:45:40.954Z,29.85
2019-03-02T08:48:10.476Z,29.63
2019-03-02T08:50:40.990Z,30.03
2019-03-02T08:53:10.518Z,30.45
2019-03-02T08:55:40.052Z,28.50
2019-03-02T08:58:09.582Z,28.42
2019-03-02T09:00:42.359Z,29.53
2019-03-02T09:03:10.452Z,27.75
2019-03-02T09:05:44.152Z,28.70
2019-03-02T09:08:11.513Z,26.80
2019-03-02T09:10:41.078Z,27.32
2019-03-02T09:13:10.562Z,28.07
2019-03-02T09:15:40.108Z,28.38
2019-03-02T09:18:10.592Z,26.13
2019-03-02T09:20:40.113Z,27.80
2019-03-02T09:23:09.620Z,25.87
2019-03-02T09:25:39.226Z,25.70
2019-03-02T09:28:09.005Z,24.63
2019-03-02T09:30:38.537Z,23.60
2019-03-02T09:33:08.087Z,23.03
2019-03-02T09:35:38.707Z,23.47
2019-03-02T09:38:08.298Z,23.87
2019-03-02T09:40:37.902Z,22.40
2019-03-02T09:43:07.654Z,21.43
2019-03-02T09:45:38.250Z,21.13
2019-03-02T09:48:07.774Z,19.87
2019-03-02T09:50:37.317Z,18.90
2019-03-02T09:53:06.858Z,17.45
2019-03-02T09:55:36.388Z,17.40
2019-03-02T09:58:06.466Z,16.37
2019-03-02T10:00:36.130Z,17.32
2019-03-02T10:03:06.624Z,17.90
2019-03-02T10:05:36.172Z,16.75
2019-03-02T10:08:09.883Z,17.07
2019-03-02T10:10:37.953Z,18.20
2019-03-02T10:13:08.261Z,14.50
2019-03-02T10:15:37.806Z,15.17
2019-03-02T10:18:10.498Z,15.88
2019-03-02T10:20:38.922Z,16.07
2019-03-02T10:23:09.790Z,15.27
2019-03-02T10:25:39.337Z,14.15
2019-03-02T10:28:08.879Z,13.70
2019-03-02T10:30:38.435Z,13.55
2019-03-02T10:33:07.960Z,13.35
2019-03-02T10:35:37.482Z,15.07
2019-03-02T10:38:07.024Z,15.50
2019-03-02T10:40:36.627Z,15.23
2019-03-02T10:43:07.453Z,14.58
2019-03-02T10:45:38.924Z,14.50
2019-03-02T10:48:08.449Z,14.58
2019-03-02T10:50:37.981Z,15.70
2019-03-02T10:53:07.507Z,15.13
2019-03-02T10:55:37.128Z,17.00
2019-03-02T10:58:06.650Z,17.00
2019-03-02T11:00:36.483Z,16.23
2019-03-02T11:03:06.089Z,17.02
2019-03-02T11:06:10.454Z,17.48
2019-03-02T11:09:08.501Z,17.77
2019-03-02T11:11:56.446Z,17.30
2019-03-02T11:14:37.452Z,16.07
2019-03-02T11:17:23.135Z,16.12
2019-03-02T11:20:07.789Z,16.50
2019-03-02T11:22:44.588Z,17.00
2019-03-02T11:25:48.295Z,17.42
2019-03-02T11:28:37.225Z,19.80
2019-03-02T11:31:16.036Z,19.50
2019-03-02T11:34:04.604Z,20.37
2019-03-02T11:36:50.970Z,20.77
2019-03-02T11:39:54.813Z,23.50
2019-03-02T11:42:43.784Z,20.62
2019-03-02T11:45:31.918Z,22.87
2019-03-02T11:48:09.199Z,21.82
2019-03-02T11:50:57.962Z,22.10
2019-03-02T11:53:48.693Z,21.68
2019-03-02T11:56:39.007Z,19.82
2019-03-02T11:59:21.184Z,21.60
2019-03-02T12:01:57.739Z,21.27
2019-03-02T12:04:36.854Z,21.65
2019-03-02T12:07:29.204Z,20.47
2019-03-02T12:10:05.211Z,21.12
2019-03-02T12:12:57.609Z,21.75
2019-03-02T12:15:52.093Z,21.10
2019-03-02T12:18:32.471Z,22.42
2019-03-02T12:21:10.965Z,22.00
2019-03-02T12:23:50.638Z,21.30
2019-03-02T12:26:34.991Z,21.65
2019-03-02T12:29:22.793Z,21.05
2019-03-02T12:32:07.490Z,21.15
2019-03-02T12:34:45.770Z,20.17
2019-03-02T12:37:32.866Z,21.23
2019-03-02T12:40:19.394Z,21.13
2019-03-02T12:43:18.095Z,20.20
2019-03-02T12:46:13.017Z,18.52
2019-03-02T12:48:51.098Z,18.07
2019-03-02T12:51:39.333Z,18.55
2019-03-02T12:54:39.226Z,18.85
2019-03-02T12:57:41.329Z,19.35
2019-03-02T13:00:40.047Z,20.00
2019-03-02T13:03:31.104Z,20.55
2019-03-02T13:06:25.142Z,22.50
2019-03-02T13:09:06.683Z,23.90
2019-03-02T13:12:02.014Z,25.52
2019-03-02T13:14:48.316Z,25.37
2019-03-02T13:17:43.091Z,28.60
2019-03-02T13:20:24.694Z,29.85
2019-03-02T13:23:03.147Z,33.15
2019-03-02T13:25:58.133Z,34.67
2019-03-02T13:28:37.031Z,35.10
2019-03-02T13:31:25.076Z,37.85
2019-03-02T13:34:13.822Z,36.42
2019-03-02T13:36:55.205Z,38.42
2019-03-02T13:39:37.626Z,38.37
2019-03-02T13:42:26.173Z,38.80
2019-03-02T13:45:06.844Z,35.80
2019-03-02T13:47:44.886Z,35.35
2019-03-02T13:50:32.578Z,36.88
2019-03-02T13:53:34.098Z,33.58
2019-03-02T13:56:30.022Z,34.90
2019-03-02T13:59:05.610Z,35.48
2019-03-02T14:02:03.564Z,35.25
2019-03-02T14:04:41.281Z,33.87
2019-03-02T14:07:27.213Z,36.17
2019-03-02T14:10:15.739Z,37.80
2019-03-02T14:13:21.159Z,37.75
2019-03-02T14:16:09.865Z,36.53
2019-03-02T14:18:47.213Z,31.77
2019-03-02T14:21:23.779Z,32.75
2019-03-02T14:24:10.235Z,32.83
2019-03-02T14:26:50.127Z,33.88
2019-03-02T14:29:57.251Z,36.47
2019-03-02T14:32:32.762Z,35.50
2019-03-02T14:35:11.274Z,33.23
2019-03-02T14:37:57.369Z,33.02
2019-03-02T14:40:39.911Z,32.63
2019-03-02T14:43:31.365Z,31.75
2019-03-02T14:46:23.092Z,33.57
2019-03-02T14:49:04.312Z,32.50
2019-03-02T14:51:56.651Z,30.33
2019-03-02T14:54:33.646Z,29.60
2019-03-02T14:57:16.707Z,31.37
2019-03-02T15:00:04.005Z,32.28
2019-03-02T15:02:58.684Z,32.63
2019-03-02T15:05:42.217Z,32.60
2019-03-02T15:08:23.902Z,31.00
2019-03-02T15:11:04.430Z,31.20
2019-03-02T15:13:43.801Z,30.12
2019-03-02T15:16:32.350Z,32.53
2019-03-02T15:19:30.555Z,31.93
2019-03-02T15:22:11.299Z,29.50
2019-03-02T15:24:48.513Z,29.57
2019-03-02T15:27:23.640Z,29.50
2019-03-02T15:30:23.228Z,28.40
2019-03-02T15:33:09.253Z,28.50
2019-03-02T15:35:50.475Z,30.27
2019-03-02T15:38:40.117Z,29.70
2019-03-02T15:41:16.964Z,29.87
2019-03-02T15:43:59.576Z,30.20
2019-03-02T15:46:48.783Z,28.50
2019-03-02T15:49:25.342Z,28.50
2019-03-02T15:52:21.138Z,26.37
2019-03-02T15:55:15.678Z,26.67
2019-03-02T15:58:08.992Z,25.90
2019-03-02T16:01:09.804Z,25.83
2019-03-02T16:04:10.733Z,24.75
2019-03-02T16:07:03.247Z,24.63
2019-03-02T16:10:05.748Z,24.82
2019-03-02T16:12:54.583Z,25.10
2019-03-02T16:15:35.141Z,25.27
2019-03-02T16:18:16.565Z,26.23
2019-03-02T16:20:52.038Z,25.35
2019-03-02T16:23:31.102Z,24.90
2019-03-02T16:26:13.059Z,25.08
2019-03-02T16:29:05.792Z,26.30
2019-03-02T16:31:54.387Z,24.43
2019-03-02T16:34:44.002Z,25.20
2019-03-02T16:37:32.481Z,26.23
2019-03-02T16:40:12.314Z,24.92
2019-03-02T16:42:55.694Z,24.32
2019-03-02T16:45:31.736Z,26.13
2019-03-02T16:48:11.794Z,24.93
2019-03-02T16:50:49.966Z,25.80
2019-03-02T16:53:43.166Z,25.32
2019-03-02T16:56:44.171Z,24.83
2019-03-02T16:59:23.943Z,24.50
2019-03-02T17:02:16.130Z,25.05
2019-03-02T17:04:56.633Z,24.65
2019-03-02T17:07:37.134Z,24.55
2019-03-02T17:10:30.885Z,23.30
2019-03-02T17:13:27.647Z,24.90
2019-03-02T17:16:18.666Z,24.70
2019-03-02T17:18:57.779Z,24.70
2019-03-02T17:21:32.896Z,23.77
2019-03-02T17:24:07.860Z,26.35
2019-03-02T17:26:49.479Z,23.57
2019-03-02T17:29:39.514Z,24.75
2019-03-02T17:32:18.631Z,23.67
2019-03-02T17:35:07.794Z,24.20
2019-03-02T17:37:56.796Z,24.27
2019-03-02T17:40:38.629Z,23.32
2019-03-02T17:43:25.322Z,24.25
2019-03-02T17:46:14.137Z,25.20
2019-03-02T17:49:00.001Z,25.80
2019-03-02T17:51:48.714Z,25.07
2019-03-02T17:54:42.342Z,25.60
2019-03-02T17:57:17.747Z,26.50
2019-03-02T17:59:56.644Z,24.30
2019-03-02T18:02:45.979Z,25.90
2019-03-02T18:05:33.743Z,25.00
2019-03-02T18:08:18.113Z,23.50
2019-03-02T18:11:18.976Z,24.98
2019-03-02T18:14:20.266Z,23.27
2019-03-02T18:17:19.139Z,24.70
2019-03-02T18:19:48.711Z,24.33
2019-03-02T18:22:20.007Z,24.97
2019-03-02T18:24:49.661Z,24.33
2019-03-02T18:27:20.040Z,23.93
2019-03-02T18:29:49.707Z,23.77
2019-03-02T18:32:19.245Z,23.85
2019-03-02T18:34:48.783Z,24.10
2019-03-02T18:37:18.312Z,22.53
2019-03-02T18:39:47.939Z,22.77
2019-03-02T18:42:17.485Z,22.62
2019-03-02T18:44:47.043Z,22.62
2019-03-02T18:47:16.583Z,22.30
2019-03-02T18:50:04.220Z,22.83
2019-03-02T18:52:42.542Z,22.23
2019-03-02T18:55:12.117Z,22.10
2019-03-02T18:57:41.663Z,21.77
2019-03-02T19:00:22.169Z,22.73
2019-03-02T19:02:49.475Z,22.10
2019-03-02T19:05:18.888Z,22.93
2019-03-02T19:07:48.768Z,23.40
2019-03-02T19:10:18.373Z,23.00
2019-03-02T19:12:47.911Z,24.80
2019-03-02T19:15:17.540Z,23.67
2019-03-02T19:17:47.430Z,24.63
2019-03-02T19:20:16.973Z,23.05
2019-03-02T19:22:46.681Z,24.60
2019-03-02T19:25:16.238Z,24.27
2019-03-02T19:27:45.783Z,23.73
2019-03-02T19:30:17.028Z,24.17
2019-03-02T19:32:46.662Z,23.30
2019-03-02T19:35:16.207Z,22.95
2019-03-02T19:37:45.760Z,23.50
2019-03-02T19:40:17.692Z,23.10
2019-03-02T19:42:47.209Z,23.25
2019-03-02T19:45:17.599Z,24.37
2019-03-02T19:47:47.134Z,23.30
2019-03-02T19:50:18.380Z,23.75
2019-03-02T19:52:48.751Z,24.10
2019-03-02T19:55:18.650Z,23.83
2019-03-02T19:57:48.175Z,23.70
2019-03-02T20:00:22.357Z,24.40
2019-03-02T20:02:51.855Z,24.25
2019-03-02T20:05:21.388Z,23.80
2019-03-02T20:07:50.939Z,24.00
2019-03-02T20:10:20.614Z,22.77
2019-03-02T20:12:50.223Z,22.80
2019-03-02T20:15:20.143Z,24.23
2019-03-02T20:17:49.760Z,24.23
2019-03-02T20:20:19.491Z,24.70
2019-03-02T20:22:49.091Z,25.55
2019-03-02T20:25:18.727Z,24.55
2019-03-02T20:27:48.319Z,23.87
2019-03-02T20:30:18.441Z,26.27
2019-03-02T20:32:48.149Z,25.27
2019-03-02T20:35:19.600Z,25.00
2019-03-02T20:37:49.205Z,25.23
2019-03-02T20:40:19.939Z,23.85
2019-03-02T20:42:49.655Z,25.67
2019-03-02T20:45:19.504Z,23.87
2019-03-02T20:47:49.114Z,25.43
2019-03-02T20:50:18.701Z,25.30
2019-03-02T20:52:48.310Z,24.00
2019-03-02T20:55:17.919Z,25.35
2019-03-02T20:57:47.452Z,24.67
2019-03-02T21:00:22.531Z,24.00
2019-03-02T21:02:52.724Z,23.30
2019-03-02T21:05:22.411Z,23.30
2019-03-02T21:07:51.923Z,23.77
2019-03-02T21:10:22.625Z,23.20
2019-03-02T21:12:52.230Z,26.00
2019-03-02T21:15:27.081Z,22.50
2019-03-02T21:17:56.641Z,22.13
2019-03-02T21:20:26.246Z,22.47
2019-03-02T21:22:55.924Z,22.10
2019-03-02T21:25:26.185Z,22.97
2019-03-02T21:27:55.714Z,22.60
2019-03-02T21:30:25.246Z,23.38
2019-03-02T21:32:54.775Z,22.77
2019-03-02T21:35:24.787Z,22.95
2019-03-02T21:37:54.323Z,22.87
2019-03-02T21:40:23.879Z,20.97
2019-03-02T21:42:53.407Z,20.83
2019-03-02T21:45:23.136Z,21.17
2019-03-02T21:47:53.166Z,20.60
2019-03-02T21:50:24.825Z,19.87
2019-03-02T21:52:54.348Z,19.70
2019-03-02T21:55:24.943Z,19.93
2019-03-02T21:57:54.552Z,20.40
2019-03-02T22:00:25.161Z,21.10
2019-03-02T22:02:54.999Z,22.50
2019-03-02T22:05:25.428Z,23.12
2019-03-02T22:07:55.038Z,23.47
2019-03-02T22:10:27.519Z,23.90
2019-03-02T22:12:57.055Z,24.80
2019-03-02T22:15:26.595Z,24.80
2019-03-02T22:17:56.570Z,24.73
2019-03-02T22:20:26.181Z,25.68
2019-03-02T22:22:55.739Z,28.15
2019-03-02T22:25:25.311Z,28.40
2019-03-02T22:27:54.883Z,28.92
2019-03-02T22:30:24.512Z,29.60
2019-03-02T22:32:54.075Z,29.63
2019-03-02T22:35:23.787Z,32.15
2019-03-02T22:37:53.317Z,31.00
2019-03-02T22:40:22.867Z,31.80
2019-03-02T22:42:52.794Z,32.60
2019-03-02T22:45:22.368Z,33.33
2019-03-02T22:47:51.876Z,34.30
2019-03-02T22:50:22.381Z,32.37
2019-03-02T22:52:51.942Z,32.50
2019-03-02T22:55:21.448Z,31.47
2019-03-02T22:57:50.995Z,30.72
2019-03-02T23:01:06.783Z,29.70
2019-03-02T23:03:36.726Z,29.70
2019-03-02T23:06:07.258Z,28.77
2019-03-02T23:08:36.830Z,28.40
2019-03-02T23:11:06.429Z,28.80
2019-03-02T23:13:35.969Z,26.93
2019-03-02T23:16:05.540Z,26.17
2019-03-02T23:18:35.136Z,25.27
2019-03-02T23:21:04.751Z,25.68
2019-03-02T23:23:34.296Z,25.23
2019-03-02T23:26:03.832Z,26.30
2019-03-02T23:28:33.388Z,26.30
2019-03-02T23:31:02.999Z,27.77
2019-03-02T23:33:32.543Z,28.87
2019-03-02T23:36:02.078Z,29.60
2019-03-02T23:38:31.613Z,32.10
2019-03-02T23:41:01.232Z,32.80
2019-03-02T23:43:30.794Z,32.87
2019-03-02T23:46:00.346Z,34.23
2019-03-02T23:48:29.863Z,31.70
2019-03-02T23:50:59.863Z,31.82
2019-03-02T23:53:29.457Z,30.43
2019-03-02T23:55:58.999Z,28.97
2019-03-02T23:58:28.541Z,24.70
